Time;durP1;ratioP1;P1;durP2;ratioP2;P2;SDS_P1;SDS_P2;PMS_P1;PMS_P2;Temp;Humidity;BMP_temperature;BMP_pressure;BME280_temperature;BME280_humidity;BME280_pressure;Samples;Min_cycle;Max_cycle;Signal;HPM_P1;HPM_P2
2023/01/06 00:02:33;;;;;;;16.50;4.55;;;;;;;4.75;100.00;98989.33;2170267;82;21565;-59
2023/01/06 00:05:34;;;;;;;15.60;4.70;;;;;;;4.73;100.00;98990.69;2169927;82;21021;-59
2023/01/06 00:12:15;;;;;;;17.05;4.58;;;;;;;4.72;100.00;98994.18;2169907;82;21034;-58
2023/01/06 00:15:16;;;;;;;17.67;4.87;;;;;;;4.84;100.00;98996.37;2170259;82;21089;-58
2023/01/06 00:18:17;;;;;;;17.60;5.83;;;;;;;4.71;100.00;99030.61;2169968;82;21078;-58
2023/01/06 00:21:19;;;;;;;14.67;4.20;;;;;;;4.75;100.00;99030.91;2170113;82;21616;-58
2023/01/06 00:24:20;;;;;;;15.00;4.33;;;;;;;4.71;100.00;99076.09;2170130;82;21054;-58
2023/01/06 00:27:22;;;;;;;15.45;4.50;;;;;;;4.70;100.00;99032.37;2169685;82;21130;-58
2023/01/06 00:30:23;;;;;;;15.55;4.12;;;;;;;4.64;100.00;99047.72;2170208;82;21042;-59
2023/01/06 00:33:25;;;;;;;17.20;4.90;;;;;;;4.68;100.00;99053.64;2169966;82;21066;-59
2023/01/06 00:36:26;;;;;;;18.37;4.75;;;;;;;4.68;100.00;99051.05;2170207;82;21105;-58
2023/01/06 00:39:27;;;;;;;14.25;4.62;;;;;;;4.62;100.00;99061.66;2170007;82;21069;-58
2023/01/06 00:42:29;;;;;;;17.60;4.62;;;;;;;4.72;100.00;99060.45;2170096;82;21553;-59
2023/01/06 00:45:30;;;;;;;19.00;5.00;;;;;;;4.66;100.00;99063.26;2170028;82;21034;-58
2023/01/06 00:48:32;;;;;;;18.55;5.20;;;;;;;4.75;100.00;99071.20;2169977;82;21509;-58
2023/01/06 00:51:33;;;;;;;19.30;5.20;;;;;;;4.69;100.00;99075.68;2170092;82;21097;-59
2023/01/06 00:54:35;;;;;;;17.07;5.30;;;;;;;4.67;100.00;99090.95;2169753;82;21048;-58
2023/01/06 00:57:38;;;;;;;17.67;5.28;;;;;;;4.64;100.00;99089.72;2170120;82;21097;-59
2023/01/06 01:00:39;;;;;;;;;;;;;;;4.65;100.00;99091.43;2172803;82;21530;-59
2023/01/06 01:03:41;;;;;;;18.75;4.97;;;;;;;4.51;100.00;99110.05;2170024;82;20151;-58
2023/01/06 01:06:42;;;;;;;16.80;5.37;;;;;;;4.63;100.00;99125.72;2170092;82;21588;-59
2023/01/06 01:09:44;;;;;;;18.97;5.43;;;;;;;4.48;100.00;99124.01;2170441;82;21137;-58
2023/01/06 01:12:45;;;;;;;16.15;4.53;;;;;;;4.62;100.00;99123.55;2169903;82;21062;-58
2023/01/06 01:15:48;;;;;;;16.75;5.05;;;;;;;4.63;100.00;99110.97;2170178;82;21062;-59
2023/01/06 01:18:50;;;;;;;15.08;3.87;;;;;;;4.67;100.00;99128.62;2169678;82;21536;-59
2023/01/06 01:21:52;;;;;;;7.95;2.77;;;;;;;4.66;100.00;99151.14;2169643;82;21049;-59
2023/01/06 01:24:53;;;;;;;9.73;2.72;;;;;;;4.49;100.00;99145.17;2170321;82;21533;-59
2023/01/06 01:27:55;;;;;;;12.40;3.58;;;;;;;4.41;100.00;99148.48;2176508;82;21011;-59
2023/01/06 01:30:56;;;;;;;15.23;3.70;;;;;;;4.27;100.00;99155.83;2180077;82;21060;-58
2023/01/06 01:33:58;;;;;;;15.83;3.85;;;;;;;4.37;100.00;99152.48;2180475;81;21048;-58
2023/01/06 01:36:59;;;;;;;11.05;3.33;;;;;;;4.30;100.00;99157.03;2180276;81;21033;-59
2023/01/06 01:40:01;;;;;;;12.43;3.37;;;;;;;4.25;100.00;99163.67;2180342;81;21028;-58
2023/01/06 01:43:02;;;;;;;7.28;2.52;;;;;;;4.18;100.00;99184.22;2180196;82;21036;-58
2023/01/06 01:46:04;;;;;;;9.63;2.70;;;;;;;4.27;100.00;99183.94;2180580;81;21509;-59
2023/01/06 01:49:05;;;;;;;8.38;2.90;;;;;;;4.14;100.00;99182.61;2180143;81;21040;-58
2023/01/06 01:52:06;;;;;;;8.38;2.60;;;;;;;4.03;100.00;99188.09;2180166;82;20998;-59
2023/01/06 01:55:08;;;;;;;11.43;2.72;;;;;;;4.06;100.00;99199.68;2180427;81;20978;-58
2023/01/06 01:58:09;;;;;;;9.50;2.60;;;;;;;4.07;100.00;99194.06;2180146;82;21017;-58
2023/01/06 02:01:11;;;;;;;8.27;2.60;;;;;;;4.12;100.00;99187.84;2180214;82;21080;-59
2023/01/06 02:04:12;;;;;;;7.72;2.47;;;;;;;4.17;100.00;99186.41;2180284;81;21026;-58
2023/01/06 02:07:14;;;;;;;6.17;2.40;;;;;;;4.23;100.00;99194.01;2180176;81;21024;-58
2023/01/06 02:10:15;;;;;;;8.93;3.00;;;;;;;4.30;100.00;99194.69;2180276;81;21046;-58
2023/01/06 02:13:16;;;;;;;7.05;2.50;;;;;;;4.29;100.00;99199.47;2180181;82;20954;-59
2023/01/06 02:16:18;;;;;;;10.18;2.75;;;;;;;4.29;100.00;99208.10;2180222;82;21562;-58
2023/01/06 02:19:20;;;;;;;7.90;2.80;;;;;;;4.26;100.00;99213.39;2180300;82;21014;-58
2023/01/06 02:22:21;;;;;;;9.30;2.83;;;;;;;4.30;100.00;99212.41;2180523;81;21517;-59
2023/01/06 02:25:23;;;;;;;8.05;2.55;;;;;;;4.23;100.00;99218.67;2180147;82;21016;-58
2023/01/06 02:28:24;;;;;;;10.03;3.25;;;;;;;4.15;100.00;99228.00;2179926;81;21049;-58
2023/01/06 02:31:26;;;;;;;12.20;2.87;;;;;;;4.07;100.00;99223.92;2180100;81;21045;-59
2023/01/06 02:34:27;;;;;;;10.80;3.33;;;;;;;4.04;100.00;99230.04;2180051;82;21045;-58
2023/01/06 02:37:28;;;;;;;9.23;3.08;;;;;;;4.04;100.00;99228.74;2179991;81;21013;-58
2023/01/06 02:40:30;;;;;;;7.70;2.87;;;;;;;4.05;100.00;99235.65;2180239;82;21069;-58
2023/01/06 02:43:32;;;;;;;12.07;3.00;;;;;;;4.14;100.00;99235.38;2180115;81;21555;-59
2023/01/06 02:46:33;;;;;;;9.40;3.15;;;;;;;4.18;100.00;99229.66;2180259;81;21022;-58
2023/01/06 02:49:35;;;;;;;10.45;3.25;;;;;;;4.17;100.00;99242.23;2180041;81;20993;-58
2023/01/06 02:52:36;;;;;;;11.68;3.33;;;;;;;4.13;100.00;99238.86;2180110;82;21021;-58
2023/01/06 02:55:37;;;;;;;10.63;2.95;;;;;;;4.23;100.00;99242.51;2180029;81;21039;-58
2023/01/06 02:58:39;;;;;;;9.88;3.10;;;;;;;4.27;100.00;99251.45;2180112;81;20966;-58
2023/01/06 03:01:40;;;;;;;9.05;3.20;;;;;;;4.28;100.00;99257.49;2179974;82;20977;-59
2023/01/06 03:04:42;;;;;;;10.32;3.33;;;;;;;4.29;100.00;99254.02;2179905;81;21615;-59
2023/01/06 03:07:43;;;;;;;9.78;3.10;;;;;;;4.30;100.00;99259.16;2180009;81;20989;-59
2023/01/06 03:10:45;;;;;;;10.08;3.00;;;;;;;4.24;100.00;99259.34;2179788;81;21539;-58
2023/01/06 03:13:46;;;;;;;9.58;2.80;;;;;;;4.10;100.00;99261.02;2180248;81;20989;-58
2023/01/06 03:16:47;;;;;;;13.03;3.37;;;;;;;4.12;100.00;99259.67;2179983;81;21109;-58
2023/01/06 03:19:49;;;;;;;14.07;3.60;;;;;;;4.01;100.00;99269.49;2180220;81;21028;-58
2023/01/06 03:22:50;;;;;;;8.53;3.27;;;;;;;4.03;100.00;99267.73;2179994;81;21034;-58
2023/01/06 03:25:52;;;;;;;10.80;3.42;;;;;;;4.07;100.00;99267.59;2180237;81;21559;-59
2023/01/06 03:28:53;;;;;;;8.98;3.15;;;;;;;4.00;100.00;99263.46;2171656;82;21026;-58
2023/01/06 03:31:55;;;;;;;10.30;3.47;;;;;;;3.95;100.00;99267.91;2169692;82;20963;-58
2023/01/06 03:34:56;;;;;;;12.90;3.52;;;;;;;3.95;100.00;99267.91;2170158;82;21081;-59
2023/01/06 03:37:58;;;;;;;12.30;3.10;;;;;;;3.82;100.00;99269.98;2169915;82;21121;-58
2023/01/06 03:40:59;;;;;;;12.88;3.50;;;;;;;3.87;100.00;99277.67;2169984;82;21537;-58
2023/01/06 03:44:00;;;;;;;13.40;3.80;;;;;;;3.92;100.00;99280.55;2169998;82;21065;-58
2023/01/06 03:47:02;;;;;;;10.72;3.50;;;;;;;3.91;100.00;99272.35;2170404;82;21536;-58
2023/01/06 03:50:03;;;;;;;9.28;3.30;;;;;;;3.88;100.00;99281.52;2170140;82;21062;-58
2023/01/06 03:53:05;;;;;;;14.30;3.52;;;;;;;3.83;100.00;99280.78;2170056;82;21084;-59
2023/01/06 03:56:06;;;;;;;10.58;3.30;;;;;;;3.83;100.00;99279.94;2170246;82;21025;-58
2023/01/06 03:59:07;;;;;;;11.70;3.50;;;;;;;3.79;100.00;99286.94;2169974;82;21078;-58
2023/01/06 04:02:09;;;;;;;12.10;3.43;;;;;;;3.76;100.00;99289.16;2170403;82;21050;-58
2023/01/06 04:05:10;;;;;;;13.35;3.47;;;;;;;3.81;100.00;99293.80;2169923;82;21134;-58
2023/01/06 04:08:12;;;;;;;9.60;3.35;;;;;;;3.83;100.00;99282.53;2169914;82;21584;-58
2023/01/06 04:14:17;;;;;;;11.63;3.35;;;;;;;3.74;100.00;99279.27;2149296;82;21051;-58
2023/01/06 04:17:18;;;;;;;13.10;3.95;;;;;;;3.72;100.00;99283.66;2170351;82;21497;-59
2023/01/06 04:20:19;;;;;;;11.08;3.80;;;;;;;3.69;100.00;99285.02;2170051;82;21090;-59
2023/01/06 04:23:21;;;;;;;14.85;3.72;;;;;;;3.70;100.00;99288.02;2170062;82;21609;-58
2023/01/06 04:26:23;;;;;;;13.78;3.77;;;;;;;3.69;100.00;99294.09;2170352;82;21091;-58
2023/01/06 04:29:24;;;;;;;12.03;3.45;;;;;;;3.72;100.00;99299.66;2179249;82;21061;-58
2023/01/06 04:32:25;;;;;;;9.48;3.45;;;;;;;3.73;100.00;99302.67;2180009;82;21056;-59
2023/01/06 04:35:27;;;;;;;11.30;3.55;;;;;;;3.72;100.00;99303.55;2180105;81;21306;-58
2023/01/06 04:38:28;;;;;;;13.80;3.50;;;;;;;3.68;100.00;99312.30;2180147;81;21002;-58
2023/01/06 04:41:31;;;;;;;12.50;3.77;;;;;;;3.56;100.00;99315.63;2180021;81;20986;-59
2023/01/06 04:44:32;;;;;;;;;;;;;;;3.59;100.00;99317.27;2182782;82;20989;-58
2023/01/06 04:47:34;;;;;;;13.40;3.98;;;;;;;3.67;100.00;99308.86;2180035;82;20110;-58
2023/01/06 04:50:35;;;;;;;13.78;3.75;;;;;;;3.64;100.00;99318.02;2180069;81;20985;-58
2023/01/06 04:53:37;;;;;;;10.07;3.57;;;;;;;3.65;100.00;99318.44;2180187;81;21078;-59
2023/01/06 04:56:38;;;;;;;11.27;3.57;;;;;;;3.60;100.00;99322.87;2180184;82;21036;-58
2023/01/06 04:59:40;;;;;;;13.80;3.92;;;;;;;3.54;100.00;99316.09;2180115;81;20997;-59
2023/01/06 05:02:41;;;;;;;12.25;4.20;;;;;;;3.57;100.00;99323.80;2180144;82;21527;-58
2023/01/06 05:05:43;;;;;;;14.10;3.83;;;;;;;3.58;100.00;99322.91;2180049;82;21085;-58
2023/01/06 05:08:44;;;;;;;12.05;3.95;;;;;;;3.62;100.00;99320.66;2180377;81;21492;-58
2023/01/06 05:11:46;;;;;;;13.08;3.92;;;;;;;3.51;100.00;99326.55;2180079;81;20993;-58
2023/01/06 05:14:47;;;;;;;12.97;4.00;;;;;;;3.53;100.00;99321.32;2180725;81;21469;-58
2023/01/06 05:17:49;;;;;;;13.93;4.42;;;;;;;3.57;100.00;99333.33;2180177;81;21220;-58
2023/01/06 05:20:50;;;;;;;16.07;4.53;;;;;;;3.55;100.00;99335.97;2179742;81;21057;-58
2023/01/06 05:23:52;;;;;;;13.95;4.20;;;;;;;3.61;100.00;99334.97;2180524;81;21001;-58
2023/01/06 05:26:53;;;;;;;14.50;4.35;;;;;;;3.69;100.00;99345.98;2180108;81;20993;-58
2023/01/06 05:29:55;;;;;;;13.83;4.13;;;;;;;3.66;100.00;99339.58;2180404;81;21557;-58
2023/01/06 05:32:56;;;;;;;13.03;4.33;;;;;;;3.74;100.00;99340.25;2180102;82;21194;-58
2023/01/06 05:35:58;;;;;;;13.35;4.30;;;;;;;3.75;100.00;99338.08;2180078;81;21045;-58
2023/01/06 05:38:59;;;;;;;13.60;4.35;;;;;;;3.76;100.00;99333.27;2180112;81;21038;-59
2023/01/06 05:42:01;;;;;;;15.25;4.35;;;;;;;3.74;100.00;99345.44;2180017;81;21037;-58
2023/01/06 05:45:02;;;;;;;12.35;4.12;;;;;;;3.71;100.00;99339.49;2180175;81;21040;-58
2023/01/06 05:48:04;;;;;;;12.70;3.97;;;;;;;3.76;100.00;99342.80;2180429;81;20998;-59
2023/01/06 05:51:06;;;;;;;13.93;4.12;;;;;;;3.86;100.00;99346.03;2180431;81;21172;-58
2023/01/06 05:54:08;;;;;;;13.90;4.00;;;;;;;3.97;100.00;99354.40;2180248;82;20990;-59
2023/01/06 05:57:10;;;;;;;12.60;4.08;;;;;;;4.08;100.00;99360.17;2180405;81;21009;-59
2023/01/06 06:00:12;;;;;;;;;;;;;;;4.05;100.00;99363.27;2182782;81;20986;-59
2023/01/06 06:03:13;;;;;;;13.20;4.00;;;;;;;3.99;100.00;99374.66;2180065;82;20103;-59
2023/01/06 06:06:14;;;;;;;15.32;4.45;;;;;;;3.93;100.00;99378.27;2180042;81;20998;-58
2023/01/06 06:09:16;;;;;;;16.23;4.30;;;;;;;3.84;100.00;99383.70;2180443;82;20994;-58
2023/01/06 06:12:17;;;;;;;13.90;4.20;;;;;;;3.73;100.00;99380.51;2180037;81;21001;-58
2023/01/06 06:15:19;;;;;;;11.45;3.80;;;;;;;3.80;100.00;99380.31;2180290;82;21001;-58
2023/01/06 06:18:20;;;;;;;14.15;4.22;;;;;;;3.84;100.00;99374.61;2180027;81;20966;-58
2023/01/06 06:21:22;;;;;;;11.57;3.87;;;;;;;3.85;100.00;99382.82;2180128;82;21505;-58
2023/01/06 06:24:23;;;;;;;13.60;4.30;;;;;;;3.72;100.00;99376.20;2180258;82;20986;-59
2023/01/06 06:27:25;;;;;;;14.23;4.15;;;;;;;3.70;100.00;99381.88;2180189;82;21551;-58
2023/01/06 06:30:26;;;;;;;16.62;4.80;;;;;;;3.76;100.00;99391.65;2180042;82;21105;-58
2023/01/06 06:33:28;;;;;;;20.32;5.62;;;;;;;3.81;100.00;99395.45;2180039;82;21052;-59
2023/01/06 06:36:29;;;;;;;20.10;6.70;;;;;;;3.84;100.00;99385.45;2180153;81;21029;-58
2023/01/06 06:39:30;;;;;;;24.57;8.03;;;;;;;3.97;100.00;99382.49;2180035;82;20954;-58
2023/01/06 06:42:32;;;;;;;27.25;9.43;;;;;;;3.87;100.00;99390.11;2180118;81;21001;-58
2023/01/06 06:45:33;;;;;;;28.07;9.00;;;;;;;3.88;100.00;99383.16;2180025;81;20994;-59
2023/01/06 06:48:35;;;;;;;23.80;7.15;;;;;;;3.81;100.00;99383.33;2180089;81;21521;-58
2023/01/06 06:51:36;;;;;;;22.20;6.73;;;;;;;3.63;100.00;99385.06;2180269;82;20989;-58
2023/01/06 06:54:38;;;;;;;21.17;6.37;;;;;;;3.44;100.00;99389.38;2180021;81;21544;-58
2023/01/06 06:57:39;;;;;;;23.87;7.47;;;;;;;3.34;100.00;99381.40;2180121;81;21050;-58
2023/01/06 07:00:41;;;;;;;23.60;7.60;;;;;;;3.24;100.00;99383.34;2179975;82;21033;-58
2023/01/06 07:03:42;;;;;;;25.17;7.95;;;;;;;3.28;100.00;99386.73;2180121;81;21017;-58
2023/01/06 07:06:43;;;;;;;21.00;6.90;;;;;;;3.45;100.00;99385.06;2180017;81;21001;-58
2023/01/06 07:09:45;;;;;;;18.50;5.60;;;;;;;3.53;100.00;99396.09;2180246;81;21479;-58
2023/01/06 07:12:46;;;;;;;16.32;5.22;;;;;;;3.53;100.00;99403.03;2180003;81;21050;-58
2023/01/06 07:15:48;;;;;;;18.60;5.65;;;;;;;3.49;100.00;99406.58;2180150;82;21537;-59
2023/01/06 07:18:49;;;;;;;15.98;5.15;;;;;;;3.53;100.00;99408.22;2180060;81;21061;-58
2023/01/06 07:21:51;;;;;;;17.80;5.30;;;;;;;3.59;100.00;99415.42;2180012;81;21080;-59
2023/01/06 07:24:52;;;;;;;19.00;5.35;;;;;;;3.63;100.00;99423.55;2180103;82;21199;-58
2023/01/06 07:27:54;;;;;;;16.27;4.87;;;;;;;3.65;100.00;99432.59;2179864;81;21089;-58
2023/01/06 07:30:55;;;;;;;16.43;4.87;;;;;;;3.64;100.00;99434.31;2180322;81;20985;-58
2023/01/06 07:33:57;;;;;;;17.48;5.25;;;;;;;3.91;100.00;99433.27;2179988;82;21360;-58
2023/01/06 07:36:58;;;;;;;17.85;5.05;;;;;;;3.97;100.00;99430.97;2180214;81;21527;-58
2023/01/06 07:40:00;;;;;;;16.15;5.15;;;;;;;4.06;100.00;99435.92;2179943;82;21041;-58
2023/01/06 07:43:01;;;;;;;16.97;4.92;;;;;;;4.08;100.00;99436.76;2180193;81;21536;-59
2023/01/06 07:46:02;;;;;;;16.65;5.15;;;;;;;4.10;100.00;99445.34;2180206;81;20990;-59
2023/01/06 07:49:04;;;;;;;20.12;6.30;;;;;;;4.06;100.00;99456.70;2179968;81;20977;-59
2023/01/06 07:52:05;;;;;;;21.02;6.75;;;;;;;3.99;100.00;99459.03;2180061;82;21025;-58
2023/01/06 07:55:07;;;;;;;20.45;6.22;;;;;;;3.98;100.00;99465.97;2179977;81;21011;-58
2023/01/06 07:58:08;;;;;;;17.77;5.80;;;;;;;4.09;100.00;99460.97;2180297;81;21472;-58
2023/01/06 08:01:10;;;;;;;19.97;6.10;;;;;;;4.13;100.00;99460.84;2180172;82;21057;-58
2023/01/06 08:04:11;;;;;;;21.07;6.28;;;;;;;4.16;100.00;99469.02;2179958;82;21437;-58
2023/01/06 08:07:14;;;;;;;17.32;5.80;;;;;;;4.27;100.00;99466.16;2180294;82;21057;-58
2023/01/06 08:10:15;;;;;;;14.87;4.75;;;;;;;4.46;100.00;99462.65;2180093;81;21041;-59
2023/01/06 08:13:17;;;;;;;15.28;4.55;;;;;;;4.47;100.00;99464.36;2180081;81;21016;-58
2023/01/06 08:16:18;;;;;;;16.95;5.15;;;;;;;4.47;100.00;99474.75;2179967;81;21057;-59
2023/01/06 08:19:20;;;;;;;14.60;4.60;;;;;;;4.49;100.00;99472.95;2179849;81;21069;-58
2023/01/06 08:22:21;;;;;;;18.15;4.83;;;;;;;4.59;100.00;99468.37;2179902;81;20958;-58
2023/01/06 08:25:22;;;;;;;15.75;4.72;;;;;;;4.71;100.00;99472.39;2180155;81;21532;-58
2023/01/06 08:28:24;;;;;;;15.72;4.62;;;;;;;4.79;100.00;99466.09;2177134;82;21009;-59
2023/01/06 08:31:25;;;;;;;15.68;4.65;;;;;;;4.95;100.00;99472.18;2169902;82;21501;-58
2023/01/06 08:34:27;;;;;;;16.27;4.83;;;;;;;4.94;100.00;99470.46;2170148;82;21050;-58
2023/01/06 08:37:28;;;;;;;16.93;4.95;;;;;;;5.20;100.00;99471.89;2169777;82;21044;-59
2023/01/06 08:40:29;;;;;;;16.42;4.58;;;;;;;5.35;100.00;99461.94;2170070;82;21037;-58
2023/01/06 08:43:31;;;;;;;14.28;4.45;;;;;;;5.31;100.00;99472.03;2170016;82;21030;-59
2023/01/06 08:46:32;;;;;;;15.70;4.25;;;;;;;5.30;100.00;99476.81;2170107;82;21059;-58
2023/01/06 08:49:34;;;;;;;15.97;4.40;;;;;;;5.39;100.00;99479.17;2170303;82;21062;-58
2023/01/06 08:52:35;;;;;;;16.85;4.60;;;;;;;5.37;100.00;99488.32;2170364;82;21517;-58
2023/01/06 08:55:37;;;;;;;17.52;5.25;;;;;;;5.33;100.00;99485.83;2170091;82;21061;-59
2023/01/06 08:58:38;;;;;;;17.48;5.47;;;;;;;5.48;100.00;99493.66;2170055;82;21568;-58
2023/01/06 09:01:40;;;;;;;16.48;4.90;;;;;;;5.62;100.00;99494.55;2170232;82;21038;-58
2023/01/06 09:04:42;;;;;;;16.57;5.17;;;;;;;5.58;100.00;99476.86;2170015;82;21069;-58
2023/01/06 09:07:43;;;;;;;18.20;4.70;;;;;;;5.81;100.00;99474.86;2170101;82;21584;-58
2023/01/06 09:10:44;;;;;;;16.82;5.03;;;;;;;5.70;100.00;99475.63;2169682;82;20990;-58
2023/01/06 09:13:46;;;;;;;15.00;4.78;;;;;;;5.59;100.00;99477.70;2170048;82;21160;-59
2023/01/06 09:16:47;;;;;;;17.00;4.67;;;;;;;5.60;100.00;99474.21;2170172;82;21086;-58
2023/01/06 09:19:49;;;;;;;18.13;5.07;;;;;;;5.61;100.00;99474.63;2170266;82;21106;-59
2023/01/06 09:22:51;;;;;;;17.53;5.27;;;;;;;5.64;100.00;99473.22;2170160;82;22016;-58
2023/01/06 09:25:52;;;;;;;18.85;5.72;;;;;;;5.73;100.00;99470.33;2169955;82;21089;-58
2023/01/06 09:28:53;;;;;;;22.65;7.22;;;;;;;5.99;100.00;99465.66;2170090;82;21564;-59
2023/01/06 09:31:55;;;;;;;21.73;7.00;;;;;;;6.24;100.00;99465.70;2170082;82;21085;-59
2023/01/06 09:34:56;;;;;;;19.77;5.60;;;;;;;6.32;100.00;99456.77;2169993;82;21779;-58
2023/01/06 09:37:58;;;;;;;18.62;5.15;;;;;;;6.20;100.00;99461.48;2170066;82;21125;-59
2023/01/06 09:40:59;;;;;;;21.45;5.95;;;;;;;6.37;100.00;99454.88;2169928;82;21026;-58
2023/01/06 09:44:01;;;;;;;20.15;5.22;;;;;;;6.41;100.00;99456.02;2170074;82;21544;-58
2023/01/06 09:47:05;;;;;;;17.65;4.97;;;;;;;6.44;100.00;99449.86;2170118;82;21046;-58
2023/01/06 09:50:08;;;;;;;17.98;5.15;;;;;;;6.58;100.00;99449.39;2170264;82;21121;-58
2023/01/06 09:53:10;;;;;;;18.48;5.22;;;;;;;6.37;100.00;99447.90;2170159;82;21049;-59
2023/01/06 09:56:11;;;;;;;;;;;;;;;6.38;100.00;99443.56;2172821;82;21073;-58
2023/01/06 09:59:13;;;;;;;18.42;5.05;;;;;;;6.41;100.00;99439.08;2170167;82;20139;-59
2023/01/06 10:02:15;;;;;;;23.67;8.58;;;;;;;6.56;100.00;99441.59;2170099;82;21129;-58
2023/01/06 10:05:17;;;;;;;16.10;4.22;;;;;;;6.80;100.00;99432.99;2170286;82;21133;-59
2023/01/06 10:08:18;;;;;;;22.90;6.87;;;;;;;6.96;100.00;99424.16;2170484;82;21074;-58
2023/01/06 10:11:20;;;;;;;30.05;11.75;;;;;;;7.29;100.00;99412.91;2170312;82;21033;-58
2023/01/06 10:14:21;;;;;;;26.27;11.22;;;;;;;7.26;100.00;99416.95;2170644;82;21524;-58
2023/01/06 10:17:23;;;;;;;19.15;4.60;;;;;;;7.36;100.00;99409.62;2170359;82;21025;-59
2023/01/06 10:20:24;;;;;;;17.05;4.92;;;;;;;7.36;100.00;99405.70;2170297;82;21442;-59
2023/01/06 10:23:25;;;;;;;19.95;5.10;;;;;;;7.36;100.00;99404.40;2170454;82;20986;-59
2023/01/06 10:26:27;;;;;;;20.12;5.85;;;;;;;7.39;100.00;99412.11;2170070;82;21109;-59
2023/01/06 10:29:29;;;;;;;21.15;7.00;;;;;;;7.25;100.00;99415.23;2170020;82;21133;-58
2023/01/06 10:32:30;;;;;;;21.80;6.70;;;;;;;7.23;100.00;99413.16;2170086;82;21030;-59
2023/01/06 10:35:32;;;;;;;24.02;7.95;;;;;;;7.19;100.00;99401.13;2170339;82;21053;-59
2023/01/06 10:38:33;;;;;;;18.73;4.70;;;;;;;7.35;100.00;99393.56;2170309;82;21113;-58
2023/01/06 10:41:35;;;;;;;18.23;4.95;;;;;;;7.07;100.00;99392.85;2170186;82;21564;-59
2023/01/06 10:47:40;;;;;;;14.73;4.05;;;;;;;6.88;100.00;99401.82;2148812;82;20986;-58
2023/01/06 10:50:41;;;;;;;18.65;5.60;;;;;;;6.90;100.00;99402.59;2170408;82;21002;-58
2023/01/06 10:53:42;;;;;;;28.15;10.10;;;;;;;6.98;100.00;99405.38;2170315;82;21117;-58
2023/01/06 10:56:44;;;;;;;22.42;8.68;;;;;;;7.07;100.00;99388.09;2170227;82;21090;-58
2023/01/06 10:59:45;;;;;;;13.45;4.20;;;;;;;7.30;100.00;99388.52;2170163;82;21553;-59
2023/01/06 11:02:47;;;;;;;13.32;4.17;;;;;;;7.57;100.00;99376.16;2170196;82;21098;-59
2023/01/06 11:05:49;;;;;;;16.27;4.75;;;;;;;7.59;100.00;99374.78;2170225;82;21549;-58
2023/01/06 11:08:52;;;;;;;20.20;5.80;;;;;;;7.28;100.00;99371.62;2148292;82;21018;-59
2023/01/06 11:11:54;;;;;;;20.57;7.22;;;;;;;7.20;100.00;99369.76;2170150;82;20990;-59
2023/01/06 11:14:56;;;;;;;19.02;6.17;;;;;;;7.38;100.00;99365.56;2170341;82;21035;-58
2023/01/06 11:17:57;;;;;;;20.02;6.37;;;;;;;7.55;100.00;99382.34;2170027;82;21098;-59
2023/01/06 11:20:59;;;;;;;24.63;8.47;;;;;;;7.42;100.00;99379.36;2170289;82;21451;-59
2023/01/06 11:24:01;;;;;;;18.73;6.53;;;;;;;7.38;100.00;99374.70;2170022;82;21704;-59
2023/01/06 11:27:02;;;;;;;21.68;7.03;;;;;;;7.43;100.00;99375.38;2170421;82;20994;-59
2023/01/06 11:30:04;;;;;;;25.72;9.40;;;;;;;7.42;100.00;99359.78;2175262;82;21072;-59
2023/01/06 11:33:05;;;;;;;20.27;6.12;;;;;;;7.56;100.00;99363.16;2180334;81;21487;-59
2023/01/06 11:36:08;;;;;;;20.52;6.22;;;;;;;7.70;100.00;99355.63;2179924;81;21045;-59
2023/01/06 11:39:09;;;;;;;;;;;;;;;7.78;100.00;99338.32;2182766;81;21472;-59
2023/01/06 11:42:11;;;;;;;27.55;10.15;;;;;;;8.04;100.00;99318.94;2180007;82;20094;-58
2023/01/06 11:45:12;;;;;;;19.35;5.50;;;;;;;8.08;100.00;99324.42;2180302;82;21496;-59
2023/01/06 11:48:14;;;;;;;17.15;5.40;;;;;;;8.09;100.00;99325.30;2180093;81;20986;-58
2023/01/06 11:51:15;;;;;;;21.20;8.17;;;;;;;8.18;100.00;99326.66;2180124;81;21117;-59
2023/01/06 11:54:17;;;;;;;21.00;6.85;;;;;;;8.26;100.00;99317.56;2180203;81;21326;-58
2023/01/06 11:57:18;;;;;;;21.68;8.13;;;;;;;8.02;100.00;99327.31;2179891;82;21074;-59
2023/01/06 12:00:20;;;;;;;23.50;9.23;;;;;;;8.02;100.00;99320.78;2179999;81;21001;-59
2023/01/06 12:03:21;;;;;;;20.77;6.67;;;;;;;8.16;100.00;99325.42;2179935;81;21028;-58
2023/01/06 12:06:23;;;;;;;19.23;5.83;;;;;;;8.19;100.00;99321.80;2180182;81;21504;-58
2023/01/06 12:09:24;;;;;;;20.62;7.15;;;;;;;8.11;100.00;99328.20;2180189;81;20942;-58
2023/01/06 12:12:26;;;;;;;20.90;6.83;;;;;;;8.25;100.00;99322.39;2179964;82;20993;-59
2023/01/06 12:15:27;;;;;;;22.45;8.45;;;;;;;8.23;100.00;99312.91;2180086;81;21002;-59
2023/01/06 12:18:29;;;;;;;22.90;7.90;;;;;;;8.30;100.00;99303.89;2180045;81;21033;-59
2023/01/06 12:21:30;;;;;;;24.35;7.10;;;;;;;8.27;100.00;99304.87;2180181;81;21882;-59
2023/01/06 12:24:32;;;;;;;24.75;8.15;;;;;;;8.30;100.00;99302.59;2179713;81;20998;-59
2023/01/06 12:27:33;;;;;;;22.00;7.10;;;;;;;8.27;100.00;99305.34;2180075;82;21477;-59
2023/01/06 12:30:35;;;;;;;22.17;7.97;;;;;;;8.29;100.00;99304.36;2173493;81;21009;-59
2023/01/06 12:33:37;;;;;;;23.85;8.80;;;;;;;8.30;100.00;99299.97;2170491;82;21569;-58
2023/01/06 12:36:38;;;;;;;23.70;7.30;;;;;;;8.24;100.00;99306.31;2170147;82;21097;-58
2023/01/06 12:39:42;;;;;;;23.00;7.92;;;;;;;8.06;100.00;99304.06;2169972;82;21069;-59
2023/01/06 12:42:43;;;;;;;22.87;8.03;;;;;;;8.06;100.00;99288.82;2149374;82;21509;-59
2023/01/06 12:45:44;;;;;;;23.73;7.55;;;;;;;7.99;100.00;99296.09;2170262;82;21037;-59
2023/01/06 12:48:46;;;;;;;25.97;10.58;;;;;;;7.77;100.00;99298.31;2170157;82;21046;-59
2023/01/06 12:51:47;;;;;;;26.87;10.70;;;;;;;7.82;100.00;99303.33;2170308;82;21069;-59
2023/01/06 12:54:48;;;;;;;26.15;10.00;;;;;;;7.67;100.00;99300.92;2170232;82;21049;-59
2023/01/06 12:57:50;;;;;;;25.32;10.65;;;;;;;7.52;100.00;99290.63;2170191;82;21054;-59
2023/01/06 13:00:51;;;;;;;25.32;9.28;;;;;;;7.39;100.00;99280.31;2170334;82;21037;-59
2023/01/06 13:03:53;;;;;;;24.65;8.83;;;;;;;7.41;100.00;99278.04;2170243;82;21042;-58
2023/01/06 13:06:54;;;;;;;22.13;8.18;;;;;;;7.31;100.00;99272.77;2170334;82;21034;-58
2023/01/06 13:09:56;;;;;;;30.60;11.20;;;;;;;7.33;100.00;99266.22;2170151;82;21094;-58
2023/01/06 13:12:57;;;;;;;27.32;10.35;;;;;;;7.29;100.00;99257.65;2170167;82;21930;-59
2023/01/06 13:15:59;;;;;;;28.42;9.65;;;;;;;7.31;100.00;99250.59;2170132;82;21054;-59
2023/01/06 13:19:00;;;;;;;27.77;10.40;;;;;;;7.23;100.00;99248.30;2170245;82;21098;-58
2023/01/06 13:22:01;;;;;;;28.42;12.40;;;;;;;7.16;100.00;99252.08;2170444;82;21005;-59
2023/01/06 13:25:03;;;;;;;27.17;11.73;;;;;;;7.06;100.00;99242.92;2170232;82;21173;-59
2023/01/06 13:28:05;;;;;;;25.97;10.30;;;;;;;7.31;100.00;99229.72;2170644;82;21480;-59
2023/01/06 13:31:06;;;;;;;27.67;11.15;;;;;;;7.18;100.00;99222.84;2170496;82;21053;-58
2023/01/06 13:34:08;;;;;;;28.98;11.43;;;;;;;7.10;100.00;99227.55;2170553;82;21500;-58
2023/01/06 13:37:09;;;;;;;30.70;12.13;;;;;;;7.29;100.00;99229.78;2170298;82;21097;-59
2023/01/06 13:40:11;;;;;;;33.28;13.80;;;;;;;7.29;100.00;99238.91;2170381;82;21560;-59
2023/01/06 13:43:12;;;;;;;27.57;10.17;;;;;;;7.16;100.00;99238.19;2170408;82;21055;-59
2023/01/06 13:46:14;;;;;;;27.00;9.77;;;;;;;7.07;100.00;99223.77;2170531;82;21294;-58
2023/01/06 13:49:15;;;;;;;27.93;9.83;;;;;;;7.07;100.00;99197.21;2170268;82;21047;-59
2023/01/06 13:52:17;;;;;;;29.80;12.07;;;;;;;6.98;100.00;99213.69;2169854;82;21113;-59
2023/01/06 13:55:18;;;;;;;25.40;9.13;;;;;;;6.89;100.00;99217.04;2170412;82;21607;-59
2023/01/06 13:58:20;;;;;;;27.15;9.90;;;;;;;6.93;100.00;99226.91;2170122;82;21074;-59
2023/01/06 14:01:21;;;;;;;27.87;10.50;;;;;;;6.96;100.00;99212.44;2170207;82;21533;-59
2023/01/06 14:04:23;;;;;;;28.90;11.30;;;;;;;6.89;100.00;99195.34;2170155;82;21074;-58
2023/01/06 14:07:24;;;;;;;34.25;13.13;;;;;;;6.86;100.00;99187.18;2170070;82;21094;-59
2023/01/06 14:10:28;;;;;;;25.50;9.78;;;;;;;6.85;100.00;99182.90;2169789;82;20998;-58
2023/01/06 14:13:31;;;;;;;27.00;9.93;;;;;;;6.89;100.00;99184.91;2170088;82;21062;-58
2023/01/06 14:16:32;;;;;;;25.35;9.65;;;;;;;6.84;100.00;99181.19;2170262;82;21050;-59